createdAt,value
2019-01-05T00:00:32.160Z,0.35
2019-01-05T00:03:13.432Z,0.30
2019-01-05T00:06:03.795Z,0.20
2019-01-05T00:08:49.826Z,0.20
2019-01-05T00:11:49.295Z,0.10
2019-01-05T00:14:42.636Z,0.20
2019-01-05T00:17:30.038Z,0.42
2019-01-05T00:20:23.444Z,0.20
2019-01-05T00:23:23.840Z,0.28
2019-01-05T00:26:20.979Z,0.25
2019-01-05T00:29:14.290Z,0.33
2019-01-05T00:32:19.878Z,0.30
2019-01-05T00:35:01.717Z,0.27
2019-01-05T00:37:47.746Z,0.37
2019-01-05T00:40:38.805Z,0.10
2019-01-05T00:43:30.184Z,0.30
2019-01-05T00:46:16.543Z,0.42
2019-01-05T00:49:04.438Z,0.20
2019-01-05T00:51:53.626Z,0.40
2019-01-05T00:54:40.864Z,0.23
2019-01-05T00:57:20.982Z,0.40
2019-01-05T01:00:14.555Z,0.20
2019-01-05T01:03:02.262Z,0.30
2019-01-05T01:05:49.620Z,0.30
2019-01-05T01:08:44.935Z,0.50
2019-01-05T01:11:28.994Z,0.30
2019-01-05T01:14:13.297Z,0.30
2019-01-05T01:16:58.792Z,0.20
2019-01-05T01:19:44.834Z,0.40
2019-01-05T01:22:29.365Z,0.40
2019-01-05T01:25:15.053Z,0.55
2019-01-05T01:28:01.917Z,0.20
2019-01-05T01:31:01.734Z,0.20
2019-01-05T01:33:56.172Z,0.40
2019-01-05T01:36:52.833Z,0.23
2019-01-05T01:39:56.457Z,0.20
2019-01-05T01:42:43.371Z,0.30
2019-01-05T01:45:35.193Z,0.30
2019-01-05T01:48:28.520Z,0.30
2019-01-05T01:51:28.309Z,0.20
2019-01-05T01:54:29.410Z,0.20
2019-01-05T01:57:06.169Z,0.20
2019-01-05T02:00:08.290Z,0.20
2019-01-05T02:02:55.746Z,0.20
2019-01-05T02:05:46.174Z,0.20
2019-01-05T02:08:34.362Z,0.20
2019-01-05T02:11:20.445Z,0.20
2019-01-05T02:14:08.520Z,0.20
2019-01-05T02:16:57.964Z,0.20
2019-01-05T02:19:50.981Z,0.20
2019-01-05T02:22:46.296Z,0.20
2019-01-05T02:25:52.010Z,0.10
2019-01-05T02:29:07.611Z,0.40
2019-01-05T02:32:04.957Z,0.25
2019-01-05T02:35:19.363Z,0.47
2019-01-05T02:38:16.202Z,0.20
2019-01-05T02:41:34.574Z,0.28
2019-01-05T02:44:36.710Z,0.30
2019-01-05T02:47:44.694Z,0.20
2019-01-05T02:50:43.051Z,0.20
2019-01-05T02:53:47.615Z,0.20
2019-01-05T02:56:59.291Z,0.30
2019-01-05T03:00:11.890Z,0.10
2019-01-05T03:03:21.687Z,0.17
2019-01-05T03:06:55.504Z,0.30
2019-01-05T03:10:05.227Z,0.40
2019-01-05T03:13:26.059Z,0.20
2019-01-05T03:16:15.371Z,0.57
2019-01-05T03:19:22.152Z,0.10
2019-01-05T03:22:29.913Z,0.20
2019-01-05T03:25:28.496Z,0.30
2019-01-05T03:28:42.939Z,0.30
2019-01-05T03:31:51.194Z,0.30
2019-01-05T03:35:01.850Z,0.47
2019-01-05T03:38:07.152Z,0.28
2019-01-05T03:40:59.742Z,0.20
2019-01-05T03:43:53.333Z,0.20
2019-01-05T03:46:56.488Z,0.33
2019-01-05T03:50:14.199Z,0.35
2019-01-05T03:53:10.750Z,0.30
2019-01-05T03:56:19.648Z,0.20
2019-01-05T03:59:28.602Z,0.30
2019-01-05T04:02:36.821Z,0.28
2019-01-05T04:05:49.698Z,0.30
2019-01-05T04:09:04.629Z,0.20
2019-01-05T04:12:15.807Z,0.10
2019-01-05T04:15:27.476Z,0.20
2019-01-05T04:18:38.398Z,0.20
2019-01-05T04:21:43.279Z,0.85
2019-01-05T04:25:04.425Z,0.30
2019-01-05T04:28:26.648Z,0.75
2019-01-05T04:31:34.604Z,0.27
2019-01-05T04:34:28.537Z,0.30
2019-01-05T04:37:28.238Z,0.65
2019-01-05T04:40:24.728Z,0.23
2019-01-05T04:43:20.441Z,0.30
2019-01-05T04:46:25.199Z,0.45
2019-01-05T04:49:48.538Z,0.20
2019-01-05T04:52:44.184Z,0.30
2019-01-05T04:55:48.514Z,0.28
2019-01-05T04:58:53.958Z,0.15
2019-01-05T05:02:13.671Z,0.20
2019-01-05T05:05:06.183Z,0.20
2019-01-05T05:08:12.943Z,0.30
2019-01-05T05:11:21.105Z,0.30
2019-01-05T05:14:25.087Z,0.20
2019-01-05T05:17:54.236Z,0.25
2019-01-05T05:20:52.719Z,0.20
2019-01-05T05:24:00.208Z,0.20
2019-01-05T05:26:51.832Z,0.30
2019-01-05T05:30:17.991Z,0.15
2019-01-05T05:33:30.834Z,0.20
2019-01-05T05:36:37.115Z,0.47
2019-01-05T05:39:41.217Z,0.20
2019-01-05T05:42:44.225Z,0.25
2019-01-05T05:45:51.906Z,0.37
2019-01-05T05:49:02.225Z,0.30
2019-01-05T05:52:13.812Z,0.50
2019-01-05T05:55:28.835Z,0.20
2019-01-05T05:58:25.453Z,0.42
2019-01-05T06:01:17.050Z,0.37
2019-01-05T06:04:23.274Z,0.20
2019-01-05T06:07:17.197Z,0.20
2019-01-05T06:10:35.197Z,0.20
2019-01-05T06:13:51.095Z,0.30
2019-01-05T06:17:16.965Z,0.20
2019-01-05T06:20:27.499Z,0.10
2019-01-05T06:23:24.170Z,0.20
2019-01-05T06:26:39.300Z,0.20
2019-01-05T06:29:30.424Z,0.42
2019-01-05T06:32:36.673Z,0.27
2019-01-05T06:35:52.270Z,0.37
2019-01-05T06:39:09.618Z,0.20
2019-01-05T06:42:22.709Z,0.33
2019-01-05T06:45:44.549Z,0.20
2019-01-05T06:48:49.523Z,0.30
2019-01-05T06:51:49.821Z,0.20
2019-01-05T06:54:50.599Z,0.20
2019-01-05T06:58:04.880Z,0.20
2019-01-05T07:01:17.008Z,0.30
2019-01-05T07:04:27.085Z,0.30
2019-01-05T07:07:33.033Z,0.30
2019-01-05T07:10:50.869Z,0.20
2019-01-05T07:14:11.947Z,0.20
2019-01-05T07:17:42.665Z,0.35
2019-01-05T07:20:42.837Z,0.43
2019-01-05T07:23:42.359Z,0.20
2019-01-05T07:26:48.957Z,0.20
2019-01-05T07:29:56.224Z,0.35
2019-01-05T07:33:15.640Z,0.20
2019-01-05T07:36:21.455Z,0.20
2019-01-05T07:39:24.566Z,0.23
2019-01-05T07:42:58.386Z,0.25
2019-01-05T07:46:16.572Z,0.25
2019-01-05T07:49:22.766Z,0.20
2019-01-05T07:52:31.147Z,0.47
2019-01-05T07:56:08.216Z,0.37
2019-01-05T07:59:20.965Z,0.30
2019-01-05T08:02:41.467Z,0.30
2019-01-05T08:05:38.447Z,0.20
2019-01-05T08:09:12.143Z,0.28
2019-01-05T08:12:17.393Z,0.30
2019-01-05T08:15:31.658Z,0.30
2019-01-05T08:18:38.380Z,0.20
2019-01-05T08:21:50.799Z,0.13
2019-01-05T08:24:44.815Z,0.85
2019-01-05T08:28:04.219Z,0.40
2019-01-05T08:31:23.962Z,0.77
2019-01-05T08:34:23.957Z,0.40
2019-01-05T08:37:20.486Z,1.05
2019-01-05T08:40:26.642Z,0.78
2019-01-05T08:43:30.802Z,0.55
2019-01-05T08:46:39.347Z,0.28
2019-01-05T08:49:51.501Z,0.50
2019-01-05T08:53:17.562Z,0.30
2019-01-05T08:56:29.340Z,0.40
2019-01-05T08:59:43.829Z,0.30
2019-01-05T09:03:07.281Z,0.42
2019-01-05T09:06:25.344Z,0.30
2019-01-05T09:09:59.381Z,0.17
2019-01-05T09:13:26.229Z,0.37
2019-01-05T09:16:18.964Z,0.35
2019-01-05T09:19:36.379Z,0.60
2019-01-05T09:22:40.390Z,0.20
2019-01-05T09:25:56.480Z,0.20
2019-01-05T09:29:02.902Z,0.40
2019-01-05T09:32:10.831Z,0.45
2019-01-05T09:35:20.453Z,0.15
2019-01-05T09:38:30.222Z,0.20
2019-01-05T09:41:38.058Z,0.20
2019-01-05T09:44:28.297Z,0.55
2019-01-05T09:47:34.581Z,0.20
2019-01-05T09:50:44.874Z,0.40
2019-01-05T09:53:53.830Z,0.20
2019-01-05T09:56:59.243Z,0.40
2019-01-05T10:00:33.077Z,0.50
2019-01-05T10:03:40.569Z,0.57
2019-01-05T10:07:04.709Z,0.50
2019-01-05T10:10:19.132Z,0.30
2019-01-05T10:13:20.375Z,0.40
2019-01-05T10:16:17.148Z,0.23
2019-01-05T10:19:38.344Z,0.65
2019-01-05T10:22:57.879Z,0.60
2019-01-05T10:26:06.543Z,0.72
2019-01-05T10:29:03.234Z,1.07
2019-01-05T10:32:17.451Z,0.77
2019-01-05T10:35:38.858Z,0.88
2019-01-05T10:38:57.277Z,1.40
2019-01-05T10:42:11.859Z,0.50
2019-01-05T10:45:18.221Z,1.60
2019-01-05T10:48:22.677Z,1.17
2019-01-05T10:51:13.975Z,1.02
2019-01-05T10:54:21.351Z,1.35
2019-01-05T10:57:38.806Z,1.57
2019-01-05T11:00:32.270Z,14.78
2019-01-05T11:03:51.444Z,10.07
2019-01-05T11:07:11.506Z,9.67
2019-01-05T11:10:25.955Z,8.23
2019-01-05T11:13:47.514Z,6.12
2019-01-05T11:16:42.692Z,6.13
2019-01-05T11:19:47.140Z,6.40
2019-01-05T11:22:50.197Z,5.60
2019-01-05T11:25:49.923Z,4.42
2019-01-05T11:29:00.941Z,3.57
2019-01-05T11:32:12.861Z,5.45
2019-01-05T11:35:21.475Z,4.87
2019-01-05T11:38:42.572Z,4.83
2019-01-05T11:42:09.156Z,4.45
2019-01-05T11:45:17.526Z,5.15
2019-01-05T11:48:29.183Z,5.20
2019-01-05T11:51:37.090Z,4.47
2019-01-05T11:54:33.573Z,3.30
2019-01-05T11:57:55.619Z,4.28
2019-01-05T12:01:16.908Z,1.90
2019-01-05T12:04:22.521Z,3.75
2019-01-05T12:07:26.783Z,0.87
2019-01-05T12:10:33.777Z,3.17
2019-01-05T12:13:45.220Z,3.72
2019-01-05T12:16:56.113Z,3.30
2019-01-05T12:20:00.603Z,2.87
2019-01-05T12:22:54.365Z,2.98
2019-01-05T12:26:01.119Z,3.15
2019-01-05T12:29:24.687Z,3.75
2019-01-05T12:32:25.232Z,2.83
2019-01-05T12:35:27.708Z,3.30
2019-01-05T12:38:43.536Z,2.83
2019-01-05T12:42:08.439Z,1.98
2019-01-05T12:45:23.380Z,2.70
2019-01-05T12:48:34.932Z,2.35
2019-01-05T12:51:59.470Z,1.77
2019-01-05T12:54:55.116Z,1.13
2019-01-05T12:57:55.427Z,3.02
2019-01-05T13:01:17.240Z,3.10
2019-01-05T13:04:25.325Z,2.57
2019-01-05T13:07:32.796Z,2.23
2019-01-05T13:10:45.477Z,1.30
2019-01-05T13:14:03.267Z,2.83
2019-01-05T13:17:22.360Z,2.77
2019-01-05T13:20:30.880Z,1.22
2019-01-05T13:23:51.565Z,0.63
2019-01-05T13:26:56.186Z,1.57
2019-01-05T13:30:00.466Z,2.62
2019-01-05T13:33:11.898Z,0.50
2019-01-05T13:36:17.476Z,0.30
2019-01-05T13:39:37.909Z,0.40
2019-01-05T13:43:01.754Z,0.70
2019-01-05T13:46:01.624Z,0.53
2019-01-05T13:49:19.539Z,0.37
2019-01-05T13:52:23.805Z,1.10
2019-01-05T13:55:27.444Z,0.50
2019-01-05T13:58:21.061Z,0.30
2019-01-05T14:01:05.970Z,0.20
2019-01-05T14:04:08.423Z,0.50
2019-01-05T14:07:05.861Z,1.17
2019-01-05T14:10:00.228Z,0.40
2019-01-05T14:12:47.645Z,0.57
2019-01-05T14:15:35.170Z,0.78
2019-01-05T14:18:14.718Z,0.40
2019-01-05T14:21:12.166Z,0.37
2019-01-05T14:24:11.654Z,0.50
2019-01-05T14:26:57.767Z,0.40
2019-01-05T14:29:42.462Z,0.35
2019-01-05T14:32:29.923Z,0.63
2019-01-05T14:35:15.944Z,0.50
2019-01-05T14:38:06.403Z,0.78
2019-01-05T14:41:00.241Z,0.78
2019-01-05T14:43:46.988Z,0.57
2019-01-05T14:46:45.736Z,0.40
2019-01-05T14:49:32.182Z,0.60
2019-01-05T14:52:18.509Z,0.20
2019-01-05T14:54:57.350Z,0.60
2019-01-05T14:57:56.960Z,0.90
2019-01-05T15:00:46.241Z,1.13
2019-01-05T15:03:33.698Z,0.70
2019-01-05T15:06:23.332Z,1.05
2019-01-05T15:09:09.588Z,1.27
2019-01-05T15:11:55.642Z,1.32
2019-01-05T15:15:02.477Z,0.75
2019-01-05T15:17:48.351Z,0.82
2019-01-05T15:20:34.298Z,0.47
2019-01-05T15:23:40.356Z,0.47
2019-01-05T15:26:32.319Z,0.60
2019-01-05T15:29:27.196Z,0.33
2019-01-05T15:32:23.650Z,0.72
2019-01-05T15:35:09.710Z,0.20
2019-01-05T15:38:02.806Z,0.57
2019-01-05T15:40:48.851Z,0.50
2019-01-05T15:43:34.846Z,0.40
2019-01-05T15:46:15.744Z,0.20
2019-01-05T15:49:03.161Z,0.50
2019-01-05T15:51:53.644Z,0.60
2019-01-05T15:54:56.522Z,0.60
2019-01-05T15:57:43.118Z,0.42
2019-01-05T16:00:29.213Z,0.50
2019-01-05T16:03:25.510Z,0.30
2019-01-05T16:06:11.757Z,0.55
2019-01-05T16:09:11.022Z,0.45
2019-01-05T16:11:58.441Z,1.12
2019-01-05T16:14:44.753Z,0.20
2019-01-05T16:17:31.160Z,0.43
2019-01-05T16:20:13.260Z,0.30
2019-01-05T16:23:00.694Z,0.30
2019-01-05T16:26:03.248Z,0.33
2019-01-05T16:29:05.736Z,3.00
2019-01-05T16:31:57.094Z,3.10
2019-01-05T16:34:44.532Z,2.87
2019-01-05T16:37:36.012Z,2.40
2019-01-05T16:40:23.553Z,2.30
2019-01-05T16:43:09.346Z,2.10
2019-01-05T16:46:08.608Z,2.00
2019-01-05T16:48:54.685Z,0.40
2019-01-05T16:51:46.654Z,0.50
2019-01-05T16:54:49.414Z,0.57
2019-01-05T16:57:35.520Z,1.20
2019-01-05T17:00:21.560Z,1.82
2019-01-05T17:03:07.872Z,1.17
2019-01-05T17:05:54.001Z,1.45
2019-01-05T17:08:47.979Z,1.82
2019-01-05T17:11:34.046Z,0.83
2019-01-05T17:14:24.995Z,0.82
2019-01-05T17:17:20.355Z,0.95
2019-01-05T17:20:22.843Z,0.47
2019-01-05T17:23:10.245Z,0.80
2019-01-05T17:25:56.329Z,0.50
2019-01-05T17:28:45.050Z,1.47
2019-01-05T17:31:31.167Z,1.15
2019-01-05T17:34:21.630Z,0.47
2019-01-05T17:37:07.838Z,0.78
2019-01-05T17:39:54.681Z,0.60
2019-01-05T17:42:55.994Z,0.40
2019-01-05T17:45:42.266Z,0.68
2019-01-05T17:48:30.862Z,1.17
2019-01-05T17:51:09.863Z,0.78
2019-01-05T17:53:56.849Z,1.03
2019-01-05T17:56:54.070Z,1.20
2019-01-05T17:59:40.091Z,0.93
2019-01-05T18:02:22.727Z,1.05
2019-01-05T18:05:19.262Z,0.37
2019-01-05T18:08:14.539Z,0.98
2019-01-05T18:11:05.262Z,1.15
2019-01-05T18:14:07.995Z,1.10
2019-01-05T18:17:10.596Z,1.10
2019-01-05T18:20:16.188Z,0.72
2019-01-05T18:23:06.565Z,1.05
2019-01-05T18:25:53.205Z,1.02
2019-01-05T18:28:39.395Z,0.95
2019-01-05T18:31:25.714Z,0.90
2019-01-05T18:34:21.052Z,1.07
2019-01-05T18:37:07.056Z,0.82
2019-01-05T18:39:53.188Z,1.42
2019-01-05T18:42:46.517Z,1.07
2019-01-05T18:45:37.066Z,1.53
2019-01-05T18:48:19.522Z,1.25
2019-01-05T18:51:14.523Z,1.07
2019-01-05T18:53:58.100Z,0.70
2019-01-05T18:56:44.281Z,0.70
2019-01-05T18:59:34.542Z,2.12
2019-01-05T19:02:28.165Z,2.47
2019-01-05T19:05:15.680Z,2.63
2019-01-05T19:08:03.266Z,0.57
2019-01-05T19:11:00.606Z,1.00
2019-01-05T19:13:40.789Z,0.30
2019-01-05T19:16:27.483Z,0.85
2019-01-05T19:19:30.180Z,1.47
2019-01-05T19:22:30.925Z,0.65
2019-01-05T19:25:18.462Z,0.30
2019-01-05T19:28:15.871Z,0.33
2019-01-05T19:31:00.824Z,0.30
2019-01-05T19:33:46.994Z,2.20
2019-01-05T19:36:49.756Z,0.85
2019-01-05T19:39:36.439Z,0.30
2019-01-05T19:42:36.363Z,0.80
2019-01-05T19:45:30.127Z,0.55
2019-01-05T19:48:22.879Z,0.50
2019-01-05T19:51:02.854Z,0.30
2019-01-05T19:54:02.487Z,0.30
2019-01-05T19:56:48.785Z,0.40
2019-01-05T19:59:34.955Z,0.20
2019-01-05T20:02:22.628Z,0.25
2019-01-05T20:05:12.893Z,0.55
2019-01-05T20:07:58.810Z,0.20
2019-01-05T20:10:49.281Z,0.40
2019-01-05T20:13:37.159Z,1.00
2019-01-05T20:16:27.736Z,0.30
2019-01-05T20:19:11.866Z,0.98
2019-01-05T20:21:59.275Z,0.70
2019-01-05T20:24:45.583Z,0.25
2019-01-05T20:27:32.017Z,0.50
2019-01-05T20:30:18.374Z,0.45
2019-01-05T20:33:21.075Z,0.40
2019-01-05T20:36:07.410Z,0.62
2019-01-05T20:38:53.370Z,0.60
2019-01-05T20:41:39.565Z,0.50
2019-01-05T20:44:26.099Z,0.30
2019-01-05T20:47:31.784Z,0.60
2019-01-05T20:50:18.254Z,0.45
2019-01-05T20:53:22.891Z,0.25
2019-01-05T20:56:09.213Z,0.20
2019-01-05T20:58:56.007Z,0.23
2019-01-05T21:01:49.789Z,0.40
2019-01-05T21:04:33.482Z,0.50
2019-01-05T21:07:20.543Z,0.25
2019-01-05T21:09:58.737Z,0.40
2019-01-05T21:12:46.254Z,0.57
2019-01-05T21:15:33.731Z,0.67
2019-01-05T21:18:20.157Z,0.57
2019-01-05T21:21:10.867Z,0.50
2019-01-05T21:24:10.423Z,0.43
2019-01-05T21:26:57.700Z,0.62
2019-01-05T21:29:44.062Z,0.57
2019-01-05T21:32:32.908Z,0.30
2019-01-05T21:35:24.278Z,0.30
2019-01-05T21:38:17.559Z,2.67
2019-01-05T21:41:05.060Z,3.12
2019-01-05T21:43:55.619Z,3.10
2019-01-05T21:46:43.207Z,3.35
2019-01-05T21:49:29.360Z,3.62
2019-01-05T21:52:15.445Z,3.27
2019-01-05T21:55:01.416Z,3.30
2019-01-05T21:57:44.776Z,3.45
2019-01-05T22:00:35.478Z,3.33
2019-01-05T22:03:15.165Z,3.73
2019-01-05T22:06:11.399Z,3.27
2019-01-05T22:09:01.675Z,2.93
2019-01-05T22:12:04.470Z,3.40
2019-01-05T22:14:55.001Z,3.70
2019-01-05T22:17:47.526Z,3.43
2019-01-05T22:20:28.321Z,3.65
2019-01-05T22:23:19.720Z,3.33
2019-01-05T22:26:10.861Z,3.40
2019-01-05T22:29:01.037Z,3.57
2019-01-05T22:31:57.710Z,3.60
2019-01-05T22:34:43.804Z,3.95
2019-01-05T22:37:34.285Z,4.83
2019-01-05T22:40:20.607Z,4.33
2019-01-05T22:43:06.994Z,3.62
2019-01-05T22:45:53.087Z,3.65
2019-01-05T22:48:55.576Z,3.92
2019-01-05T22:51:51.025Z,4.05
2019-01-05T22:54:29.550Z,4.40
2019-01-05T22:58:41.139Z,2.98
2019-01-05T23:05:20.154Z,4.72
2019-01-05T23:08:06.571Z,4.47
2019-01-05T23:11:01.049Z,4.07
2019-01-05T23:13:50.377Z,4.30
2019-01-05T23:16:41.382Z,4.23
2019-01-05T23:19:27.389Z,4.43
2019-01-05T23:22:16.359Z,3.80
2019-01-05T23:25:01.110Z,3.92
2019-01-05T23:27:46.842Z,3.77
2019-01-05T23:30:37.078Z,3.83
2019-01-05T23:33:27.397Z,3.57
2019-01-05T23:36:14.806Z,4.10
2019-01-05T23:39:11.288Z,3.60
2019-01-05T23:42:04.698Z,4.30
2019-01-05T23:44:58.022Z,4.15
2019-01-05T23:47:39.623Z,3.55
2019-01-05T23:50:25.694Z,3.97
2019-01-05T23:53:12.858Z,4.17
2019-01-05T23:55:59.189Z,3.90
2019-01-05T23:58:46.823Z,3.98
